METAR Data
IDs: Format: Raw Decoded Include TAF

Data at: 2324 UTC 29 May 2020

METAR for:KSDA (Shenandoah Muni, IA, US)
Text:KSDA 292315Z AUTO 34009KT 320V020 10SM CLR 24/07 A3013 RMK AO2
Temperature: 24.0°C ( 75°F)
Dewpoint: 7.0°C ( 45°F) [RH = 34%]
Pressure (altimeter):30.13 inches Hg (1020.4 mb)
Winds:from the NNW (340 degrees) at 10 MPH (9 knots; 4.6 m/s)
Visibility:10 or more sm (16+ km)
Ceiling:at least 12,000 feet AGL
Clouds:sky clear below 12,000 feet AGL
QC Flag:automated observation with no human augmentation